Time;durP1;ratioP1;P1;durP2;ratioP2;P2;SDS_P1;SDS_P2;PMS_P1;PMS_P2;Temp;Humidity;BMP_temperature;BMP_pressure;BME280_temperature;BME280_humidity;BME280_pressure;Samples;Min_cycle;Max_cycle;Signal;HPM_P1;HPM_P2
2023/07/15 00:00:41;;;;;;;0.57;0.57;;;;;;;;;;5033309;28;20033;-65
2023/07/15 00:03:11;;;;;;;0.90;0.60;;;;;;;;;;5033320;28;20044;-65
2023/07/15 00:05:39;;;;;;;1.00;0.85;;;;;;;;;;5032527;28;20053;-65
2023/07/15 00:08:06;;;;;;;1.13;0.80;;;;;;;;;;5030628;28;20081;-65
2023/07/15 00:10:36;;;;;;;1.10;1.00;;;;;;;;;;5029810;28;20127;-64
2023/07/15 00:13:02;;;;;;;0.70;0.70;;;;;;;;;;5034854;28;20061;-64
2023/07/15 00:15:29;;;;;;;0.60;0.60;;;;;;;;;;5030781;28;20120;-64
2023/07/15 00:17:55;;;;;;;1.23;1.13;;;;;;;;;;5030714;28;20052;-65
2023/07/15 00:20:21;;;;;;;1.10;1.00;;;;;;;;;;5032979;28;20044;-64
2023/07/15 00:22:47;;;;;;;1.10;1.00;;;;;;;;;;5032254;28;20132;-64
2023/07/15 00:25:15;;;;;;;1.60;0.88;;;;;;;;;;5027737;28;20057;-64
2023/07/15 00:27:42;;;;;;;1.63;1.38;;;;;;;;;;5033431;28;20053;-65
2023/07/15 00:30:09;;;;;;;1.75;1.63;;;;;;;;;;5031410;28;20358;-65
2023/07/15 00:32:35;;;;;;;2.38;2.10;;;;;;;;;;5033485;28;20032;-64
2023/07/15 00:35:01;;;;;;;2.63;2.42;;;;;;;;;;5034419;28;20041;-64
2023/07/15 00:37:28;;;;;;;4.85;3.08;;;;;;;;;;5035125;28;20094;-65
2023/07/15 00:39:55;;;;;;;4.32;1.98;;;;;;;;;;5039477;28;20049;-65
2023/07/15 00:42:43;;;;;;;2.97;2.20;;;;;;;;;;5037776;28;20044;-65
2023/07/15 00:45:09;;;;;;;2.22;2.03;;;;;;;;;;5030937;28;20052;-65
2023/07/15 00:47:45;;;;;;;2.88;2.10;;;;;;;;;;5036608;28;20424;-64
2023/07/15 00:50:12;;;;;;;2.10;1.83;;;;;;;;;;5032242;28;20498;-64
2023/07/15 00:52:38;;;;;;;2.53;2.03;;;;;;;;;;5033421;28;20037;-64
2023/07/15 00:55:05;;;;;;;2.30;2.00;;;;;;;;;;5030542;28;20673;-64
2023/07/15 00:57:31;;;;;;;2.40;2.20;;;;;;;;;;5032976;28;20068;-64
2023/07/15 00:59:59;;;;;;;3.08;1.95;;;;;;;;;;5034509;28;20292;-65
2023/07/15 01:02:26;;;;;;;2.25;2.05;;;;;;;;;;5031436;28;20028;-65
2023/07/15 01:04:52;;;;;;;3.55;2.80;;;;;;;;;;5031718;28;20203;-65
2023/07/15 01:07:18;;;;;;;3.45;2.03;;;;;;;;;;5033636;28;20542;-65
2023/07/15 01:09:46;;;;;;;1.92;1.83;;;;;;;;;;5036953;28;20049;-65
2023/07/15 01:12:13;;;;;;;2.28;2.08;;;;;;;;;;5034356;28;20060;-65
2023/07/15 01:14:40;;;;;;;2.58;2.17;;;;;;;;;;5036283;28;20159;-65
2023/07/15 01:17:06;;;;;;;2.22;2.00;;;;;;;;;;5032422;28;20033;-65
2023/07/15 01:19:32;;;;;;;2.55;2.10;;;;;;;;;;5033519;28;20051;-65
2023/07/15 01:21:58;;;;;;;2.78;2.17;;;;;;;;;;5035229;28;20039;-65
2023/07/15 01:24:26;;;;;;;2.72;2.40;;;;;;;;;;5036316;28;20060;-65
2023/07/15 01:26:55;;;;;;;2.33;2.13;;;;;;;;;;5034175;28;20064;-65
2023/07/15 01:29:21;;;;;;;4.18;2.40;;;;;;;;;;5034044;28;20037;-65
2023/07/15 01:31:47;;;;;;;3.97;2.30;;;;;;;;;;5034068;28;20099;-65
2023/07/15 01:34:13;;;;;;;2.95;2.50;;;;;;;;;;5029194;28;20045;-65
2023/07/15 01:36:39;;;;;;;2.40;2.20;;;;;;;;;;5033426;28;21097;-65
2023/07/15 01:39:09;;;;;;;1.85;1.75;;;;;;;;;;5035223;28;20043;-65
2023/07/15 01:41:35;;;;;;;1.98;1.88;;;;;;;;;;5034203;28;20045;-65
2023/07/15 01:44:04;;;;;;;1.67;1.58;;;;;;;;;;5034244;28;20090;-65
2023/07/15 01:46:30;;;;;;;1.75;1.65;;;;;;;;;;5032601;28;20053;-65
2023/07/15 01:48:59;;;;;;;1.50;1.40;;;;;;;;;;5034165;28;20052;-65
2023/07/15 01:51:25;;;;;;;1.90;1.52;;;;;;;;;;5032665;28;20049;-65
2023/07/15 01:53:51;;;;;;;1.63;1.52;;;;;;;;;;5038012;28;20052;-65
2023/07/15 01:56:19;;;;;;;1.50;1.40;;;;;;;;;;5040692;28;20041;-65
2023/07/15 01:58:45;;;;;;;2.03;1.80;;;;;;;;;;5039426;28;20045;-65
2023/07/15 02:01:11;;;;;;;1.38;1.27;;;;;;;;;;5038872;28;20764;-65
2023/07/15 02:03:37;;;;;;;1.58;1.48;;;;;;;;;;5034368;28;20037;-65
2023/07/15 02:06:03;;;;;;;2.33;1.63;;;;;;;;;;5037121;28;20045;-65
2023/07/15 02:08:29;;;;;;;1.80;1.48;;;;;;;;;;5038987;28;20037;-65
2023/07/15 02:10:55;;;;;;;1.38;1.27;;;;;;;;;;5040163;28;20041;-65
2023/07/15 02:13:21;;;;;;;1.85;1.50;;;;;;;;;;5032640;28;20053;-65
2023/07/15 02:15:47;;;;;;;2.00;1.42;;;;;;;;;;5035612;28;20044;-65
2023/07/15 02:18:15;;;;;;;1.48;1.30;;;;;;;;;;5034294;28;20100;-65
2023/07/15 02:20:41;;;;;;;1.83;1.42;;;;;;;;;;5036832;28;20045;-66
2023/07/15 02:23:10;;;;;;;1.65;1.48;;;;;;;;;;5033769;28;20053;-65
2023/07/15 02:25:37;;;;;;;2.00;1.23;;;;;;;;;;5035126;28;20052;-65
2023/07/15 02:28:03;;;;;;;1.05;0.98;;;;;;;;;;5036262;28;20135;-65
2023/07/15 02:30:29;;;;;;;1.55;0.80;;;;;;;;;;5031514;28;20083;-65
2023/07/15 02:32:55;;;;;;;2.40;0.95;;;;;;;;;;5034565;28;20433;-65
2023/07/15 02:35:21;;;;;;;1.42;1.25;;;;;;;;;;5032938;28;20049;-65
2023/07/15 02:37:49;;;;;;;1.73;1.55;;;;;;;;;;5038410;28;20132;-65
2023/07/15 02:40:15;;;;;;;1.70;1.30;;;;;;;;;;5034210;28;20052;-65
2023/07/15 02:42:41;;;;;;;1.40;1.30;;;;;;;;;;5035656;28;20452;-65
2023/07/15 02:45:11;;;;;;;1.73;1.42;;;;;;;;;;5036429;28;20076;-65
2023/07/15 02:47:39;;;;;;;1.85;1.50;;;;;;;;;;5033468;28;20080;-65
2023/07/15 02:50:07;;;;;;;1.30;1.20;;;;;;;;;;5035631;28;20049;-65
2023/07/15 02:52:34;;;;;;;1.23;1.13;;;;;;;;;;5031546;28;21224;-65
2023/07/15 02:55:01;;;;;;;1.38;1.10;;;;;;;;;;5033591;28;20179;-65
2023/07/15 02:57:27;;;;;;;1.02;1.00;;;;;;;;;;5036202;28;20587;-65
2023/07/15 02:59:54;;;;;;;1.08;0.80;;;;;;;;;;5032138;28;20041;-65
2023/07/15 03:02:20;;;;;;;1.48;1.08;;;;;;;;;;5038236;28;20302;-65
2023/07/15 03:04:47;;;;;;;0.90;0.90;;;;;;;;;;5035134;28;20422;-65
2023/07/15 03:07:13;;;;;;;2.25;0.98;;;;;;;;;;5039661;28;20092;-65
2023/07/15 03:09:39;;;;;;;0.90;0.90;;;;;;;;;;5038217;28;20045;-65
2023/07/15 03:12:06;;;;;;;0.90;0.90;;;;;;;;;;5032168;28;20524;-65
2023/07/15 03:14:32;;;;;;;1.20;1.10;;;;;;;;;;5034515;28;20040;-65
2023/07/15 03:16:58;;;;;;;2.72;0.98;;;;;;;;;;5032762;28;20038;-65
2023/07/15 03:19:24;;;;;;;1.67;1.02;;;;;;;;;;5035328;28;20098;-65
2023/07/15 03:21:50;;;;;;;2.92;1.15;;;;;;;;;;5035908;28;20414;-65
2023/07/15 03:24:16;;;;;;;1.13;0.95;;;;;;;;;;5036247;28;20052;-65
2023/07/15 03:26:42;;;;;;;1.30;1.20;;;;;;;;;;5035179;28;20120;-65
2023/07/15 03:29:09;;;;;;;1.27;1.10;;;;;;;;;;5033790;28;20450;-65
2023/07/15 03:31:35;;;;;;;1.23;1.05;;;;;;;;;;5034805;28;20081;-65
2023/07/15 03:34:02;;;;;;;1.40;1.05;;;;;;;;;;5032914;28;20040;-65
2023/07/15 03:36:28;;;;;;;1.20;1.10;;;;;;;;;;5033784;28;20044;-65
2023/07/15 03:38:54;;;;;;;1.88;0.93;;;;;;;;;;5035183;28;20048;-65
2023/07/15 03:41:20;;;;;;;1.15;1.00;;;;;;;;;;5034345;28;20041;-65
2023/07/15 03:43:46;;;;;;;1.33;1.23;;;;;;;;;;5034902;28;20040;-65
2023/07/15 03:46:12;;;;;;;1.50;1.40;;;;;;;;;;5031837;28;20041;-66
2023/07/15 03:48:39;;;;;;;1.30;1.20;;;;;;;;;;5035249;28;20045;-65
2023/07/15 03:51:09;;;;;;;1.45;1.15;;;;;;;;;;5034608;28;20043;-65
2023/07/15 03:53:35;;;;;;;2.42;1.40;;;;;;;;;;5034163;28;20041;-65
2023/07/15 03:56:01;;;;;;;2.13;1.17;;;;;;;;;;5032491;28;20472;-65
2023/07/15 03:58:27;;;;;;;1.20;0.77;;;;;;;;;;5032781;28;20283;-65
2023/07/15 04:00:53;;;;;;;1.27;0.90;;;;;;;;;;5034343;28;20045;-65
2023/07/15 04:03:19;;;;;;;1.27;0.60;;;;;;;;;;5032974;28;20041;-65
2023/07/15 04:05:46;;;;;;;1.25;0.98;;;;;;;;;;5029978;28;20099;-65
2023/07/15 04:08:12;;;;;;;1.52;1.08;;;;;;;;;;5030541;28;20083;-65
2023/07/15 04:10:38;;;;;;;1.05;0.95;;;;;;;;;;5035293;28;20045;-65
2023/07/15 04:13:04;;;;;;;1.67;0.90;;;;;;;;;;5034625;28;20456;-65
2023/07/15 04:15:31;;;;;;;0.70;0.50;;;;;;;;;;5034649;28;20041;-65
2023/07/15 04:17:57;;;;;;;1.23;1.00;;;;;;;;;;5031286;28;20046;-65
2023/07/15 04:20:23;;;;;;;0.80;0.80;;;;;;;;;;5035237;28;20132;-65
2023/07/15 04:22:49;;;;;;;0.82;0.60;;;;;;;;;;5035147;28;20132;-65
2023/07/15 04:25:15;;;;;;;0.50;0.50;;;;;;;;;;5035685;28;20331;-65
2023/07/15 04:27:42;;;;;;;0.57;0.57;;;;;;;;;;5034057;28;20041;-65
2023/07/15 04:30:12;;;;;;;0.60;0.50;;;;;;;;;;5034386;28;20052;-66
2023/07/15 04:32:38;;;;;;;0.52;0.50;;;;;;;;;;5033276;28;20049;-65
2023/07/15 04:35:04;;;;;;;0.70;0.60;;;;;;;;;;5032354;28;20042;-65
2023/07/15 04:37:31;;;;;;;0.73;0.73;;;;;;;;;;5033438;28;20052;-65
2023/07/15 04:39:57;;;;;;;1.15;0.93;;;;;;;;;;5036331;28;20033;-65
2023/07/15 04:42:23;;;;;;;2.10;0.95;;;;;;;;;;5032201;28;20070;-65
2023/07/15 04:44:49;;;;;;;1.20;0.82;;;;;;;;;;5037984;28;20045;-65
2023/07/15 04:47:15;;;;;;;1.30;0.90;;;;;;;;;;5032845;28;20053;-66
2023/07/15 04:49:41;;;;;;;0.85;0.80;;;;;;;;;;5033216;28;20025;-66
2023/07/15 04:52:07;;;;;;;1.10;1.00;;;;;;;;;;5034542;28;20041;-65
2023/07/15 04:54:33;;;;;;;0.80;0.80;;;;;;;;;;5034162;28;20347;-65
2023/07/15 04:56:59;;;;;;;1.15;1.05;;;;;;;;;;5036360;28;20324;-65
2023/07/15 04:59:25;;;;;;;1.35;0.90;;;;;;;;;;5034710;28;20099;-65
2023/07/15 05:01:51;;;;;;;1.13;0.80;;;;;;;;;;5031806;28;20037;-65
2023/07/15 05:04:17;;;;;;;0.75;0.70;;;;;;;;;;5036083;28;20045;-65
2023/07/15 05:06:43;;;;;;;0.80;0.77;;;;;;;;;;5031050;28;20034;-65
2023/07/15 05:09:10;;;;;;;0.60;0.50;;;;;;;;;;5032076;28;20045;-65
2023/07/15 05:11:36;;;;;;;0.70;0.70;;;;;;;;;;5033590;28;20390;-66
2023/07/15 05:14:02;;;;;;;2.10;0.90;;;;;;;;;;5029831;28;20324;-66
2023/07/15 05:16:29;;;;;;;1.38;1.20;;;;;;;;;;5034709;28;20154;-65
2023/07/15 05:18:55;;;;;;;1.13;1.00;;;;;;;;;;5029848;28;20053;-66
2023/07/15 05:21:21;;;;;;;1.05;0.90;;;;;;;;;;5032908;28;20052;-66
2023/07/15 05:23:47;;;;;;;1.75;1.25;;;;;;;;;;5031834;28;20056;-65
2023/07/15 05:26:13;;;;;;;1.08;0.90;;;;;;;;;;5036747;28;20046;-65
2023/07/15 05:28:39;;;;;;;0.88;0.77;;;;;;;;;;5038517;28;20369;-65
2023/07/15 05:31:05;;;;;;;0.60;0.60;;;;;;;;;;5033177;28;20049;-65
2023/07/15 05:33:32;;;;;;;1.73;1.08;;;;;;;;;;5037309;28;20037;-65
2023/07/15 05:35:58;;;;;;;1.25;1.15;;;;;;;;;;5039454;28;20047;-65
2023/07/15 05:38:24;;;;;;;1.88;1.10;;;;;;;;;;5036301;28;20049;-65
2023/07/15 05:40:51;;;;;;;1.45;1.27;;;;;;;;;;5037931;28;20040;-65
2023/07/15 05:43:18;;;;;;;2.08;1.05;;;;;;;;;;5038054;28;20460;-65
2023/07/15 05:45:44;;;;;;;1.65;1.40;;;;;;;;;;5038872;28;20049;-65
2023/07/15 05:48:10;;;;;;;1.67;1.58;;;;;;;;;;5035880;28;20049;-65
2023/07/15 05:50:37;;;;;;;2.88;1.63;;;;;;;;;;5041583;28;20124;-65
2023/07/15 05:53:06;;;;;;;2.28;1.73;;;;;;;;;;5039743;28;20077;-65
2023/07/15 05:55:35;;;;;;;3.03;1.58;;;;;;;;;;5038672;28;20045;-65
2023/07/15 05:58:02;;;;;;;1.75;1.65;;;;;;;;;;5039180;28;20508;-65
2023/07/15 06:00:28;;;;;;;2.20;1.70;;;;;;;;;;5037475;28;20056;-66
2023/07/15 06:02:54;;;;;;;4.85;1.40;;;;;;;;;;5033511;28;20072;-66
2023/07/15 06:05:20;;;;;;;1.38;1.23;;;;;;;;;;5032576;28;20150;-66
2023/07/15 06:07:48;;;;;;;1.48;1.38;;;;;;;;;;5035916;28;20057;-66
2023/07/15 06:10:14;;;;;;;2.63;1.65;;;;;;;;;;5035419;28;20091;-66
2023/07/15 06:12:40;;;;;;;2.28;1.55;;;;;;;;;;5036175;28;20053;-65
2023/07/15 06:15:06;;;;;;;3.38;2.05;;;;;;;;;;5038356;28;20409;-65
2023/07/15 06:17:32;;;;;;;2.03;1.80;;;;;;;;;;5037577;28;20044;-65
2023/07/15 06:19:58;;;;;;;1.92;1.73;;;;;;;;;;5039214;28;20045;-65
2023/07/15 06:22:24;;;;;;;2.60;1.60;;;;;;;;;;5035144;28;20045;-67
2023/07/15 06:24:50;;;;;;;2.17;1.75;;;;;;;;;;5033715;28;20048;-66
2023/07/15 06:27:16;;;;;;;1.27;1.13;;;;;;;;;;5035099;28;20049;-65
2023/07/15 06:29:43;;;;;;;0.95;0.95;;;;;;;;;;5040674;28;20037;-66
2023/07/15 06:32:10;;;;;;;1.60;1.50;;;;;;;;;;5036545;28;20123;-65
2023/07/15 06:34:36;;;;;;;3.25;1.52;;;;;;;;;;5037920;28;20040;-66
2023/07/15 06:37:02;;;;;;;2.70;1.50;;;;;;;;;;5035307;28;20044;-66
2023/07/15 06:39:28;;;;;;;1.48;1.38;;;;;;;;;;5034244;28;20106;-67
2023/07/15 06:41:54;;;;;;;1.80;1.63;;;;;;;;;;5035935;28;20147;-66
2023/07/15 06:44:20;;;;;;;2.15;1.50;;;;;;;;;;5035175;28;20131;-65
2023/07/15 06:46:46;;;;;;;2.22;1.50;;;;;;;;;;5034090;28;20128;-65
2023/07/15 06:49:12;;;;;;;2.95;1.80;;;;;;;;;;5033897;28;20441;-65
2023/07/15 06:51:38;;;;;;;1.40;1.30;;;;;;;;;;5035534;28;20045;-65
2023/07/15 06:54:04;;;;;;;5.03;2.05;;;;;;;;;;5037223;28;20037;-65
2023/07/15 06:56:30;;;;;;;1.90;1.80;;;;;;;;;;5035330;28;20049;-66
2023/07/15 06:58:56;;;;;;;2.72;1.60;;;;;;;;;;5039499;28;20048;-65
2023/07/15 07:01:22;;;;;;;2.97;1.45;;;;;;;;;;5033507;28;20037;-65
2023/07/15 07:03:48;;;;;;;3.28;1.80;;;;;;;;;;5031894;28;20044;-65
2023/07/15 07:06:14;;;;;;;3.13;1.45;;;;;;;;;;5035248;28;20389;-65
2023/07/15 07:08:41;;;;;;;1.85;1.33;;;;;;;;;;5036642;28;20556;-66
2023/07/15 07:11:07;;;;;;;1.80;1.40;;;;;;;;;;5038059;28;20049;-66
2023/07/15 07:13:33;;;;;;;1.75;1.52;;;;;;;;;;5037637;28;20136;-66
2023/07/15 07:15:59;;;;;;;6.88;2.53;;;;;;;;;;5043176;28;20490;-65
2023/07/15 07:18:26;;;;;;;2.30;1.63;;;;;;;;;;5037115;28;20405;-65
2023/07/15 07:21:01;;;;;;;2.40;1.40;;;;;;;;;;5034394;28;20041;-65
2023/07/15 07:23:29;;;;;;;1.63;1.25;;;;;;;;;;5040119;28;20171;-67
2023/07/15 07:25:55;;;;;;;1.45;1.00;;;;;;;;;;5032393;28;20041;-67
2023/07/15 07:28:23;;;;;;;2.58;1.80;;;;;;;;;;5042716;28;20053;-66
2023/07/15 07:30:49;;;;;;;2.63;1.35;;;;;;;;;;5038027;28;20053;-66
2023/07/15 07:33:15;;;;;;;2.45;1.50;;;;;;;;;;5040826;28;20044;-66
2023/07/15 07:35:45;;;;;;;1.40;1.13;;;;;;;;;;5044175;28;20044;-66
2023/07/15 07:38:11;;;;;;;1.35;1.05;;;;;;;;;;5039107;28;20148;-65
2023/07/15 07:40:37;;;;;;;1.55;1.20;;;;;;;;;;5041785;28;20532;-65
2023/07/15 07:43:04;;;;;;;1.95;1.08;;;;;;;;;;5035713;28;20107;-65
2023/07/15 07:45:31;;;;;;;1.42;1.33;;;;;;;;;;5041435;28;20049;-66
2023/07/15 07:47:57;;;;;;;1.83;1.45;;;;;;;;;;5039347;28;20083;-65
2023/07/15 07:50:23;;;;;;;1.60;1.25;;;;;;;;;;5034009;28;20037;-65
2023/07/15 07:52:49;;;;;;;1.60;1.27;;;;;;;;;;5036593;28;20551;-65
2023/07/15 07:55:15;;;;;;;2.05;1.27;;;;;;;;;;5038554;28;20092;-65
2023/07/15 07:57:41;;;;;;;2.60;1.40;;;;;;;;;;5044977;28;20493;-65
2023/07/15 08:00:07;;;;;;;1.38;1.20;;;;;;;;;;5043591;28;20048;-65
2023/07/15 08:02:33;;;;;;;1.25;1.15;;;;;;;;;;5041585;28;20124;-66
2023/07/15 08:04:59;;;;;;;2.13;1.50;;;;;;;;;;5039516;28;20049;-66
2023/07/15 08:07:25;;;;;;;1.45;1.30;;;;;;;;;;5037524;28;20049;-65
2023/07/15 08:09:51;;;;;;;1.15;1.05;;;;;;;;;;5033188;28;20041;-65
2023/07/15 08:12:18;;;;;;;1.15;1.05;;;;;;;;;;5035594;28;20486;-65
2023/07/15 08:14:44;;;;;;;1.23;0.90;;;;;;;;;;5035819;28;20067;-66
2023/07/15 08:17:10;;;;;;;0.88;0.70;;;;;;;;;;5032220;28;20076;-67
2023/07/15 08:19:36;;;;;;;1.35;1.05;;;;;;;;;;5033291;28;20164;-66
2023/07/15 08:22:02;;;;;;;1.20;1.10;;;;;;;;;;5040970;28;20088;-66
2023/07/15 08:24:28;;;;;;;0.93;0.80;;;;;;;;;;5040507;28;20511;-66
2023/07/15 08:26:54;;;;;;;1.13;0.73;;;;;;;;;;5036130;28;20045;-67
2023/07/15 08:29:20;;;;;;;1.70;1.05;;;;;;;;;;5038688;28;20401;-64
2023/07/15 08:31:46;;;;;;;1.30;1.10;;;;;;;;;;5042116;28;20422;-65
2023/07/15 08:34:13;;;;;;;0.88;0.82;;;;;;;;;;5029078;28;20060;-61
2023/07/15 08:36:39;;;;;;;1.20;1.10;;;;;;;;;;5035528;28;20048;-66
2023/07/15 08:39:05;;;;;;;1.00;0.90;;;;;;;;;;5044793;28;20516;-66
2023/07/15 08:41:31;;;;;;;1.20;0.88;;;;;;;;;;5041337;28;20041;-67
2023/07/15 08:43:57;;;;;;;1.25;1.00;;;;;;;;;;5043607;28;20405;-67
2023/07/15 08:46:27;;;;;;;0.75;0.70;;;;;;;;;;5041341;28;20040;-67
2023/07/15 08:48:54;;;;;;;0.80;0.68;;;;;;;;;;5035148;28;20033;-67
2023/07/15 08:51:21;;;;;;;0.80;0.60;;;;;;;;;;5036469;28;20096;-67
2023/07/15 08:53:48;;;;;;;1.00;0.90;;;;;;;;;;5038386;28;20053;-67
2023/07/15 08:56:14;;;;;;;0.98;0.93;;;;;;;;;;5041817;28;20084;-67
2023/07/15 08:58:40;;;;;;;1.20;1.00;;;;;;;;;;5040116;28;20040;-67
2023/07/15 09:01:06;;;;;;;1.05;0.95;;;;;;;;;;5044008;28;20033;-67
2023/07/15 09:03:32;;;;;;;0.73;0.73;;;;;;;;;;5028601;28;20064;-66
2023/07/15 09:05:58;;;;;;;0.80;0.63;;;;;;;;;;5035808;28;20056;-67
2023/07/15 09:08:25;;;;;;;1.15;0.90;;;;;;;;;;5031151;28;20049;-67
2023/07/15 09:10:52;;;;;;;1.67;0.73;;;;;;;;;;5029305;28;20074;-67
2023/07/15 09:13:25;;;;;;;0.98;0.65;;;;;;;;;;5044721;28;20421;-67
2023/07/15 09:15:51;;;;;;;1.58;0.80;;;;;;;;;;5042917;28;20041;-67
2023/07/15 09:18:18;;;;;;;1.15;0.65;;;;;;;;;;5046732;28;20064;-67
2023/07/15 09:20:45;;;;;;;0.52;0.40;;;;;;;;;;5025812;28;20051;-66
2023/07/15 09:23:11;;;;;;;1.38;0.70;;;;;;;;;;5035750;28;20124;-66
2023/07/15 09:25:37;;;;;;;0.55;0.55;;;;;;;;;;5034751;28;20041;-66
2023/07/15 09:28:03;;;;;;;0.95;0.60;;;;;;;;;;5040676;28;20052;-66
2023/07/15 09:30:30;;;;;;;1.10;0.80;;;;;;;;;;5038321;28;20071;-65
2023/07/15 09:32:56;;;;;;;0.60;0.60;;;;;;;;;;5043069;28;20153;-65
2023/07/15 09:35:22;;;;;;;1.08;0.60;;;;;;;;;;5034474;28;20052;-65
2023/07/15 09:37:48;;;;;;;1.05;0.47;;;;;;;;;;5023101;28;20041;-66
2023/07/15 09:40:14;;;;;;;1.35;0.70;;;;;;;;;;5023549;28;20049;-65
2023/07/15 09:42:56;;;;;;;0.63;0.50;;;;;;;;;;5023655;28;20463;-65
2023/07/15 09:45:35;;;;;;;1.13;0.75;;;;;;;;;;5022045;28;20038;-65
2023/07/15 09:48:03;;;;;;;1.23;0.77;;;;;;;;;;5023049;28;20053;-65
2023/07/15 09:50:30;;;;;;;1.13;0.70;;;;;;;;;;5022466;28;20430;-65
2023/07/15 09:52:58;;;;;;;0.63;0.63;;;;;;;;;;5022399;28;20087;-65
2023/07/15 09:55:24;;;;;;;0.90;0.90;;;;;;;;;;5022748;28;20144;-66
2023/07/15 09:57:59;;;;;;;1.25;0.88;;;;;;;;;;5023289;28;20533;-66
2023/07/15 10:00:28;;;;;;;1.08;0.80;;;;;;;;;;5023865;28;20041;-66
2023/07/15 10:02:57;;;;;;;0.90;0.60;;;;;;;;;;5024299;28;20081;-66
2023/07/15 10:05:26;;;;;;;0.80;0.80;;;;;;;;;;5023526;28;20041;-66
2023/07/15 10:07:52;;;;;;;0.88;0.80;;;;;;;;;;5024589;28;20053;-66
2023/07/15 10:10:21;;;;;;;1.60;0.68;;;;;;;;;;5024516;28;20045;-66
2023/07/15 10:12:48;;;;;;;1.50;0.63;;;;;;;;;;5025758;28;20145;-66
2023/07/15 10:15:15;;;;;;;2.28;0.95;;;;;;;;;;5028364;28;20463;-66
2023/07/15 10:17:41;;;;;;;1.13;0.80;;;;;;;;;;5028231;28;20038;-66
2023/07/15 10:20:11;;;;;;;1.00;0.80;;;;;;;;;;5027351;28;20504;-66
2023/07/15 10:22:38;;;;;;;2.40;1.02;;;;;;;;;;5027976;28;20287;-66
2023/07/15 10:25:05;;;;;;;1.35;1.00;;;;;;;;;;5027969;28;20034;-66
2023/07/15 10:27:32;;;;;;;0.85;0.85;;;;;;;;;;5025370;28;20049;-66
2023/07/15 10:30:17;;;;;;;0.80;0.80;;;;;;;;;;5027635;28;20475;-66
2023/07/15 10:33:09;;;;;;;1.35;0.75;;;;;;;;;;5028088;28;20049;-66
2023/07/15 10:35:45;;;;;;;0.80;0.80;;;;;;;;;;5025865;28;20136;-66
2023/07/15 10:38:27;;;;;;;0.95;0.70;;;;;;;;;;5028225;28;20124;-66
2023/07/15 10:40:58;;;;;;;0.70;0.60;;;;;;;;;;5026867;28;20060;-66
2023/07/15 10:43:35;;;;;;;0.65;0.60;;;;;;;;;;5027341;28;20056;-66
2023/07/15 10:46:21;;;;;;;0.60;0.40;;;;;;;;;;5027493;28;20129;-65
2023/07/15 10:48:47;;;;;;;2.05;0.93;;;;;;;;;;5027073;28;20052;-65
2023/07/15 10:51:16;;;;;;;0.60;0.60;;;;;;;;;;5027338;28;20506;-65
2023/07/15 10:53:42;;;;;;;1.25;0.88;;;;;;;;;;5027720;28;20077;-65
2023/07/15 10:56:09;;;;;;;0.60;0.60;;;;;;;;;;5026438;28;20092;-65
2023/07/15 10:58:36;;;;;;;1.13;0.70;;;;;;;;;;5027333;28;20091;-65
2023/07/15 11:01:04;;;;;;;1.38;0.88;;;;;;;;;;5027479;28;20091;-66
2023/07/15 11:03:31;;;;;;;1.75;0.77;;;;;;;;;;5026164;28;20045;-66
2023/07/15 11:06:03;;;;;;;1.13;0.90;;;;;;;;;;5026961;28;20048;-66
2023/07/15 11:08:30;;;;;;;2.33;1.10;;;;;;;;;;5026733;28;20045;-66
2023/07/15 11:10:56;;;;;;;0.75;0.68;;;;;;;;;;5026166;28;20038;-66
2023/07/15 11:13:22;;;;;;;1.02;0.90;;;;;;;;;;5026400;28;20124;-66
2023/07/15 11:15:48;;;;;;;0.75;0.75;;;;;;;;;;5026558;28;20566;-66
2023/07/15 11:18:18;;;;;;;1.05;1.02;;;;;;;;;;5026871;28;20055;-66
2023/07/15 11:20:47;;;;;;;1.10;0.88;;;;;;;;;;5027308;28;20486;-66
2023/07/15 11:23:14;;;;;;;0.60;0.50;;;;;;;;;;5025975;28;20045;-65
2023/07/15 11:25:40;;;;;;;0.93;0.60;;;;;;;;;;5025666;28;20057;-65
2023/07/15 11:28:06;;;;;;;0.60;0.60;;;;;;;;;;5026723;28;20041;-65
2023/07/15 11:30:36;;;;;;;0.70;0.65;;;;;;;;;;5025861;28;20048;-65
2023/07/15 11:33:03;;;;;;;2.15;1.00;;;;;;;;;;5026851;28;20140;-66
2023/07/15 11:35:33;;;;;;;1.00;0.90;;;;;;;;;;5026588;28;20099;-66
2023/07/15 11:38:00;;;;;;;0.80;0.75;;;;;;;;;;5025973;28;20037;-66
2023/07/15 11:40:26;;;;;;;1.48;1.00;;;;;;;;;;5026278;28;20492;-66
2023/07/15 11:42:52;;;;;;;1.10;1.00;;;;;;;;;;5026485;28;20037;-65
2023/07/15 11:45:21;;;;;;;1.02;0.90;;;;;;;;;;5025509;28;20043;-65
2023/07/15 11:47:48;;;;;;;0.98;0.95;;;;;;;;;;5026687;28;20130;-65
2023/07/15 11:50:14;;;;;;;2.00;1.15;;;;;;;;;;5024936;28;20061;-66
2023/07/15 11:52:42;;;;;;;2.15;0.77;;;;;;;;;;5025923;28;20045;-66
2023/07/15 11:55:08;;;;;;;1.38;1.05;;;;;;;;;;5025877;28;20072;-66
2023/07/15 11:57:42;;;;;;;0.98;0.88;;;;;;;;;;5026135;28;20041;-66
2023/07/15 12:00:09;;;;;;;0.80;0.73;;;;;;;;;;5025180;28;20528;-66
2023/07/15 12:02:36;;;;;;;1.02;0.88;;;;;;;;;;5026128;28;20041;-66
2023/07/15 12:05:02;;;;;;;1.08;0.88;;;;;;;;;;5025603;28;20410;-66
2023/07/15 12:07:28;;;;;;;1.13;1.02;;;;;;;;;;5025864;28;20059;-66
2023/07/15 12:10:07;;;;;;;0.70;0.70;;;;;;;;;;5025901;28;20486;-66
2023/07/15 12:12:33;;;;;;;1.17;0.90;;;;;;;;;;5024881;28;20663;-65
2023/07/15 12:14:59;;;;;;;1.17;0.82;;;;;;;;;;5025955;28;20082;-65
2023/07/15 12:17:25;;;;;;;1.83;1.02;;;;;;;;;;5025479;28;20131;-65
2023/07/15 12:19:51;;;;;;;1.48;0.90;;;;;;;;;;5025096;28;20346;-65
2023/07/15 12:22:17;;;;;;;0.90;0.70;;;;;;;;;;5025712;28;20313;-66
2023/07/15 12:24:43;;;;;;;0.73;0.73;;;;;;;;;;5025780;28;20045;-65
2023/07/15 12:27:09;;;;;;;1.17;1.02;;;;;;;;;;5024832;28;20046;-65
2023/07/15 12:29:35;;;;;;;1.30;0.90;;;;;;;;;;5025525;28;20116;-65
2023/07/15 12:32:01;;;;;;;1.40;0.93;;;;;;;;;;5025594;28;20426;-65
2023/07/15 12:34:27;;;;;;;0.93;0.90;;;;;;;;;;5022468;28;20637;-65
2023/07/15 12:36:56;;;;;;;1.15;0.70;;;;;;;;;;5025448;28;20491;-65
2023/07/15 12:39:22;;;;;;;1.88;0.70;;;;;;;;;;5024913;28;20064;-66
2023/07/15 12:41:48;;;;;;;0.90;0.55;;;;;;;;;;5024774;28;20493;-66
2023/07/15 12:44:14;;;;;;;1.13;0.90;;;;;;;;;;5025428;28;20072;-65
2023/07/15 12:46:40;;;;;;;1.10;0.85;;;;;;;;;;5025231;28;20037;-65
2023/07/15 12:49:06;;;;;;;2.20;0.80;;;;;;;;;;5024825;28;20445;-65
2023/07/15 12:51:32;;;;;;;1.27;0.75;;;;;;;;;;5025057;28;20041;-65
2023/07/15 12:53:58;;;;;;;1.05;0.95;;;;;;;;;;5025122;28;20120;-66
2023/07/15 12:56:24;;;;;;;1.95;0.82;;;;;;;;;;5024406;28;20485;-66
2023/07/15 12:58:50;;;;;;;3.72;1.58;;;;;;;;;;5025747;28;20045;-66
2023/07/15 13:01:16;;;;;;;0.95;0.90;;;;;;;;;;5024792;28;20265;-66
2023/07/15 13:03:42;;;;;;;0.98;0.88;;;;;;;;;;5025279;28;20033;-66
2023/07/15 13:06:08;;;;;;;1.05;1.00;;;;;;;;;;5024747;28;20462;-66
2023/07/15 13:08:36;;;;;;;0.77;0.77;;;;;;;;;;5024046;28;20124;-66
2023/07/15 13:11:02;;;;;;;0.70;0.63;;;;;;;;;;5024650;28;20045;-66
2023/07/15 13:13:29;;;;;;;0.90;0.70;;;;;;;;;;5031096;28;20053;-66
2023/07/15 13:15:55;;;;;;;1.05;0.82;;;;;;;;;;5032051;28;20045;-66
2023/07/15 13:18:21;;;;;;;0.88;0.73;;;;;;;;;;5038447;28;20630;-66
2023/07/15 13:20:47;;;;;;;1.05;0.80;;;;;;;;;;5044796;28;20044;-66
2023/07/15 13:23:13;;;;;;;0.50;0.50;;;;;;;;;;5031063;28;20041;-66
2023/07/15 13:25:39;;;;;;;0.60;0.60;;;;;;;;;;5026292;28;20368;-66
2023/07/15 13:28:05;;;;;;;0.40;0.40;;;;;;;;;;5027439;28;20080;-66
2023/07/15 13:30:32;;;;;;;0.50;0.50;;;;;;;;;;5026598;28;20506;-66
2023/07/15 13:32:58;;;;;;;0.75;0.70;;;;;;;;;;5029402;28;20521;-66
2023/07/15 13:35:24;;;;;;;1.02;1.00;;;;;;;;;;5029337;28;20094;-66
2023/07/15 13:37:50;;;;;;;1.48;0.90;;;;;;;;;;5026105;28;20050;-66
2023/07/15 13:40:16;;;;;;;1.52;0.90;;;;;;;;;;5026833;28;20037;-66
2023/07/15 13:42:42;;;;;;;1.08;0.80;;;;;;;;;;5024628;28;20037;-66
2023/07/15 13:45:08;;;;;;;1.73;0.88;;;;;;;;;;5023544;28;20552;-66
2023/07/15 13:47:34;;;;;;;1.55;1.02;;;;;;;;;;5038231;28;20053;-66
2023/07/15 13:50:01;;;;;;;1.60;0.80;;;;;;;;;;5043078;28;20112;-66
2023/07/15 13:52:27;;;;;;;0.73;0.70;;;;;;;;;;5030398;28;20033;-66
2023/07/15 13:54:53;;;;;;;3.63;1.35;;;;;;;;;;5027934;28;20433;-66
2023/07/15 13:57:19;;;;;;;1.10;1.00;;;;;;;;;;5027962;28;20586;-66
2023/07/15 13:59:45;;;;;;;1.45;0.80;;;;;;;;;;5026018;28;20505;-66
2023/07/15 14:02:15;;;;;;;1.23;0.80;;;;;;;;;;5038584;28;20045;-66
2023/07/15 14:04:41;;;;;;;1.38;0.80;;;;;;;;;;5043920;28;20555;-66
2023/07/15 14:07:07;;;;;;;0.80;0.77;;;;;;;;;;5044580;28;20040;-66
2023/07/15 14:09:33;;;;;;;1.23;1.10;;;;;;;;;;5035747;28;20481;-66
2023/07/15 14:11:59;;;;;;;1.38;0.70;;;;;;;;;;5029927;28;20107;-67
2023/07/15 14:14:25;;;;;;;0.60;0.50;;;;;;;;;;5029823;28;20041;-67
2023/07/15 14:16:51;;;;;;;2.15;0.90;;;;;;;;;;5030047;28;20059;-67
2023/07/15 14:19:17;;;;;;;0.70;0.60;;;;;;;;;;5026995;28;20034;-67
2023/07/15 14:21:43;;;;;;;1.17;1.00;;;;;;;;;;5028093;28;20257;-67
2023/07/15 14:24:09;;;;;;;1.10;0.90;;;;;;;;;;5025399;28;20478;-67
2023/07/15 14:26:35;;;;;;;1.15;0.80;;;;;;;;;;5030396;28;20452;-67
2023/07/15 14:29:01;;;;;;;1.25;0.70;;;;;;;;;;5034702;28;20042;-67
2023/07/15 14:31:28;;;;;;;0.70;0.70;;;;;;;;;;5027618;28;20049;-67
2023/07/15 14:33:54;;;;;;;1.75;0.90;;;;;;;;;;5026603;28;20132;-67
2023/07/15 14:36:21;;;;;;;1.05;1.00;;;;;;;;;;5027247;28;20069;-67
2023/07/15 14:38:47;;;;;;;1.10;0.90;;;;;;;;;;5026989;28;20041;-67
2023/07/15 14:41:13;;;;;;;1.20;1.10;;;;;;;;;;5032725;28;20045;-67